Terminal Aerodrome Forecast
Issued by NWS

Home | Current Version | Previous Version | Text Only | Print | Product List | Glossary On
Versions: 1 2 3 4 5 6 7 8 9 10 11 12 13 14 15 16 17 18 19 20 21 22 23
000
FTUS42 KMHX 011100 CCA
TAFPGV
TAF COR
KPGV 011154Z 0112/0212 00000KT 1SM BR VV006
     FM011330 03005KT P6SM SCT025
     FM020300 00000KT 3SM BR SCT007
     FM020500 00000KT 1SM BR SCT004
      AMD LTD TO CLD VIS AND WIND=

USA.gov is the U.S. government's official web portal to all federal, state and local government web resources and services.